Terminal Aerodrome Forecast
Issued by NWS

Home | Current Version | Previous Version | Text Only | Print | Product List | Glossary On
Versions: 1 2 3 4 5 6 7 8 9 10 11 12 13 14 15
000
FTUS46 KMFR 261740
TAFRBG
TAF
KRBG 261740Z 2618/2718 15002KT 3SM BR OVC002
     FM262000 VRB02KT 6SM BR BKN006
     FM262100 VRB03KT P6SM FEW010 SCT200
     FM270500 00000KT 3SM BR OVC006
     FM270800 00000KT 1/2SM FG OVC002=

USA.gov is the U.S. government's official web portal to all federal, state and local government web resources and services.